Quemado, Texas
Current Conditions -  °F | °C
As of 10:58 PM on Saturday 22 Nov 2014 (Local Time) from KDLF Reporting Station
Clear Clear  
Wind Chill: 53°   Ceiling: Unl
Heat Index: 53°   Visibility: 10mi
Dew Point: 51°   Wind: 0mph
Humidity: 94%   Direction: NA
Pressure: 29.79"   Gusts: NA
Location:  28.95°N, 100.62°W
Report Text: KDLF 230458Z AUTO 00000KT 10SM CLR 11/11 A2979 RMK AO2 SLP081 T01140105 $
Loading
Personal Weather Stations






























Interactive Weather Map New forecast layout! Learn more

10-Day Weather Forecast

Advertisements
Track Severe Weather on mobile